sensor_id;sensor_type;location;lat;lon;timestamp;P1;durP1;ratioP1;P2;durP2;ratioP2
75450;SDS011;64029;48.244;9.188;2023-09-08T00:01:00;7.23;;;6.30;;
75450;SDS011;64029;48.244;9.188;2023-09-08T00:03:28;9.70;;;6.63;;
75450;SDS011;64029;48.244;9.188;2023-09-08T00:05:55;7.20;;;6.07;;
75450;SDS011;64029;48.244;9.188;2023-09-08T00:08:22;7.93;;;6.23;;
75450;SDS011;64029;48.244;9.188;2023-09-08T00:10:49;6.90;;;6.20;;
75450;SDS011;64029;48.244;9.188;2023-09-08T00:13:16;6.27;;;5.67;;
75450;SDS011;64029;48.244;9.188;2023-09-08T00:15:42;13.03;;;6.40;;
75450;SDS011;64029;48.244;9.188;2023-09-08T00:18:09;6.63;;;5.90;;
75450;SDS011;64029;48.244;9.188;2023-09-08T00:20:38;7.93;;;6.50;;
75450;SDS011;64029;48.244;9.188;2023-09-08T00:23:06;8.00;;;5.90;;
75450;SDS011;64029;48.244;9.188;2023-09-08T00:25:33;10.90;;;5.87;;
75450;SDS011;64029;48.244;9.188;2023-09-08T00:28:00;8.13;;;6.17;;
75450;SDS011;64029;48.244;9.188;2023-09-08T00:30:28;7.07;;;6.33;;
75450;SDS011;64029;48.244;9.188;2023-09-08T00:32:55;7.10;;;6.40;;
75450;SDS011;64029;48.244;9.188;2023-09-08T00:35:22;7.90;;;5.70;;
75450;SDS011;64029;48.244;9.188;2023-09-08T00:37:50;7.00;;;5.50;;
75450;SDS011;64029;48.244;9.188;2023-09-08T00:40:16;6.37;;;5.17;;
75450;SDS011;64029;48.244;9.188;2023-09-08T00:42:43;7.20;;;5.50;;
75450;SDS011;64029;48.244;9.188;2023-09-08T00:45:10;6.80;;;6.20;;
75450;SDS011;64029;48.244;9.188;2023-09-08T00:47:37;6.27;;;5.67;;
75450;SDS011;64029;48.244;9.188;2023-09-08T00:50:04;6.60;;;5.37;;
75450;SDS011;64029;48.244;9.188;2023-09-08T00:52:32;6.40;;;5.80;;
75450;SDS011;64029;48.244;9.188;2023-09-08T00:55:00;7.00;;;6.37;;
75450;SDS011;64029;48.244;9.188;2023-09-08T00:57:27;6.37;;;5.57;;
75450;SDS011;64029;48.244;9.188;2023-09-08T00:59:54;7.60;;;5.90;;
75450;SDS011;64029;48.244;9.188;2023-09-08T01:02:21;6.50;;;5.90;;
75450;SDS011;64029;48.244;9.188;2023-09-08T01:04:48;7.60;;;6.27;;
75450;SDS011;64029;48.244;9.188;2023-09-08T01:07:16;6.50;;;5.50;;
75450;SDS011;64029;48.244;9.188;2023-09-08T01:09:45;6.67;;;6.07;;
75450;SDS011;64029;48.244;9.188;2023-09-08T01:12:14;6.60;;;5.97;;
75450;SDS011;64029;48.244;9.188;2023-09-08T01:14:41;7.13;;;6.10;;
75450;SDS011;64029;48.244;9.188;2023-09-08T01:17:08;6.30;;;5.37;;
75450;SDS011;64029;48.244;9.188;2023-09-08T01:19:37;8.40;;;5.87;;
75450;SDS011;64029;48.244;9.188;2023-09-08T01:22:29;6.23;;;5.63;;
75450;SDS011;64029;48.244;9.188;2023-09-08T01:25:32;5.80;;;5.20;;
75450;SDS011;64029;48.244;9.188;2023-09-08T01:28:05;5.90;;;5.40;;
75450;SDS011;64029;48.244;9.188;2023-09-08T01:30:33;8.27;;;5.50;;
75450;SDS011;64029;48.244;9.188;2023-09-08T01:33:01;7.90;;;6.30;;
75450;SDS011;64029;48.244;9.188;2023-09-08T01:35:28;8.03;;;6.00;;
75450;SDS011;64029;48.244;9.188;2023-09-08T01:37:55;6.43;;;5.43;;
75450;SDS011;64029;48.244;9.188;2023-09-08T01:40:22;5.40;;;4.90;;
75450;SDS011;64029;48.244;9.188;2023-09-08T01:42:51;6.33;;;5.20;;
75450;SDS011;64029;48.244;9.188;2023-09-08T01:45:18;6.63;;;5.90;;
75450;SDS011;64029;48.244;9.188;2023-09-08T01:47:44;6.27;;;5.63;;
75450;SDS011;64029;48.244;9.188;2023-09-08T01:50:11;7.40;;;5.23;;
75450;SDS011;64029;48.244;9.188;2023-09-08T01:52:38;8.20;;;5.90;;
75450;SDS011;64029;48.244;9.188;2023-09-08T01:55:05;6.30;;;5.70;;
75450;SDS011;64029;48.244;9.188;2023-09-08T01:57:33;8.20;;;5.37;;
75450;SDS011;64029;48.244;9.188;2023-09-08T02:00:01;6.13;;;5.13;;
75450;SDS011;64029;48.244;9.188;2023-09-08T02:02:29;6.63;;;5.93;;
75450;SDS011;64029;48.244;9.188;2023-09-08T02:04:55;8.20;;;5.87;;
75450;SDS011;64029;48.244;9.188;2023-09-08T02:07:22;5.60;;;5.10;;
75450;SDS011;64029;48.244;9.188;2023-09-08T02:09:49;6.20;;;5.60;;
75450;SDS011;64029;48.244;9.188;2023-09-08T02:12:16;6.90;;;5.77;;
75450;SDS011;64029;48.244;9.188;2023-09-08T02:14:43;6.87;;;5.27;;
75450;SDS011;64029;48.244;9.188;2023-09-08T02:17:11;5.87;;;5.37;;
75450;SDS011;64029;48.244;9.188;2023-09-08T02:19:37;8.27;;;4.90;;
75450;SDS011;64029;48.244;9.188;2023-09-08T02:22:04;5.90;;;5.30;;
75450;SDS011;64029;48.244;9.188;2023-09-08T02:24:31;5.57;;;5.07;;
75450;SDS011;64029;48.244;9.188;2023-09-08T02:26:58;7.10;;;5.90;;
75450;SDS011;64029;48.244;9.188;2023-09-08T02:29:25;5.93;;;5.37;;
75450;SDS011;64029;48.244;9.188;2023-09-08T02:31:51;9.00;;;5.60;;
75450;SDS011;64029;48.244;9.188;2023-09-08T02:34:19;5.70;;;5.20;;
75450;SDS011;64029;48.244;9.188;2023-09-08T02:36:46;9.30;;;5.40;;
75450;SDS011;64029;48.244;9.188;2023-09-08T02:39:15;7.50;;;5.50;;
75450;SDS011;64029;48.244;9.188;2023-09-08T02:41:42;11.13;;;5.87;;
75450;SDS011;64029;48.244;9.188;2023-09-08T02:44:09;6.83;;;6.13;;
75450;SDS011;64029;48.244;9.188;2023-09-08T02:46:36;6.00;;;5.40;;
75450;SDS011;64029;48.244;9.188;2023-09-08T02:49:03;6.80;;;5.60;;
75450;SDS011;64029;48.244;9.188;2023-09-08T02:51:31;8.60;;;5.40;;
75450;SDS011;64029;48.244;9.188;2023-09-08T02:53:58;5.90;;;5.13;;
75450;SDS011;64029;48.244;9.188;2023-09-08T02:56:25;8.27;;;5.87;;
75450;SDS011;64029;48.244;9.188;2023-09-08T02:58:51;6.00;;;5.40;;
75450;SDS011;64029;48.244;9.188;2023-09-08T03:01:18;6.70;;;5.03;;
75450;SDS011;64029;48.244;9.188;2023-09-08T03:03:46;6.43;;;5.40;;
75450;SDS011;64029;48.244;9.188;2023-09-08T03:06:13;6.00;;;5.30;;
75450;SDS011;64029;48.244;9.188;2023-09-08T03:08:42;5.97;;;5.37;;
75450;SDS011;64029;48.244;9.188;2023-09-08T03:11:09;5.93;;;4.80;;
75450;SDS011;64029;48.244;9.188;2023-09-08T03:13:36;8.83;;;5.13;;
75450;SDS011;64029;48.244;9.188;2023-09-08T03:16:03;5.70;;;5.13;;
75450;SDS011;64029;48.244;9.188;2023-09-08T03:18:31;6.20;;;5.43;;
75450;SDS011;64029;48.244;9.188;2023-09-08T03:20:58;6.70;;;5.43;;
75450;SDS011;64029;48.244;9.188;2023-09-08T03:23:28;6.10;;;5.50;;
75450;SDS011;64029;48.244;9.188;2023-09-08T03:25:56;5.77;;;5.10;;
75450;SDS011;64029;48.244;9.188;2023-09-08T03:28:23;5.10;;;4.60;;
75450;SDS011;64029;48.244;9.188;2023-09-08T03:30:50;5.30;;;4.80;;
75450;SDS011;64029;48.244;9.188;2023-09-08T03:33:16;5.20;;;4.63;;
75450;SDS011;64029;48.244;9.188;2023-09-08T03:35:42;5.60;;;5.10;;
75450;SDS011;64029;48.244;9.188;2023-09-08T03:38:09;6.20;;;5.20;;
75450;SDS011;64029;48.244;9.188;2023-09-08T03:40:37;5.90;;;5.13;;
75450;SDS011;64029;48.244;9.188;2023-09-08T03:43:05;8.00;;;5.23;;
75450;SDS011;64029;48.244;9.188;2023-09-08T03:45:32;7.37;;;5.53;;
75450;SDS011;64029;48.244;9.188;2023-09-08T03:47:59;7.20;;;5.23;;
75450;SDS011;64029;48.244;9.188;2023-09-08T03:50:26;5.70;;;5.10;;
75450;SDS011;64029;48.244;9.188;2023-09-08T03:52:52;6.73;;;5.10;;
75450;SDS011;64029;48.244;9.188;2023-09-08T03:55:19;5.73;;;5.13;;
75450;SDS011;64029;48.244;9.188;2023-09-08T03:57:46;5.90;;;5.30;;
75450;SDS011;64029;48.244;9.188;2023-09-08T04:00:15;6.60;;;6.00;;
75450;SDS011;64029;48.244;9.188;2023-09-08T04:02:46;6.30;;;5.53;;
75450;SDS011;64029;48.244;9.188;2023-09-08T04:05:13;6.37;;;5.50;;
75450;SDS011;64029;48.244;9.188;2023-09-08T04:07:40;6.10;;;5.50;;
75450;SDS011;64029;48.244;9.188;2023-09-08T04:10:08;6.10;;;5.40;;
75450;SDS011;64029;48.244;9.188;2023-09-08T04:12:35;7.40;;;5.97;;
75450;SDS011;64029;48.244;9.188;2023-09-08T04:15:02;6.53;;;5.37;;
75450;SDS011;64029;48.244;9.188;2023-09-08T04:17:30;6.70;;;5.60;;
75450;SDS011;64029;48.244;9.188;2023-09-08T04:19:57;7.30;;;5.63;;
75450;SDS011;64029;48.244;9.188;2023-09-08T04:22:24;7.10;;;5.03;;
75450;SDS011;64029;48.244;9.188;2023-09-08T04:24:51;6.10;;;5.43;;
75450;SDS011;64029;48.244;9.188;2023-09-08T04:27:18;7.07;;;5.50;;
75450;SDS011;64029;48.244;9.188;2023-09-08T04:29:45;5.97;;;5.30;;
75450;SDS011;64029;48.244;9.188;2023-09-08T04:32:11;5.50;;;5.00;;
75450;SDS011;64029;48.244;9.188;2023-09-08T04:34:40;6.83;;;5.80;;
75450;SDS011;64029;48.244;9.188;2023-09-08T04:37:08;6.77;;;5.70;;
75450;SDS011;64029;48.244;9.188;2023-09-08T04:39:35;7.10;;;5.10;;
75450;SDS011;64029;48.244;9.188;2023-09-08T04:42:03;6.77;;;5.17;;
75450;SDS011;64029;48.244;9.188;2023-09-08T04:44:30;8.90;;;5.43;;
75450;SDS011;64029;48.244;9.188;2023-09-08T04:46:57;5.60;;;5.00;;
75450;SDS011;64029;48.244;9.188;2023-09-08T04:49:24;7.20;;;5.53;;
75450;SDS011;64029;48.244;9.188;2023-09-08T04:51:52;6.37;;;5.40;;
75450;SDS011;64029;48.244;9.188;2023-09-08T04:54:19;5.90;;;5.03;;
75450;SDS011;64029;48.244;9.188;2023-09-08T04:56:47;6.63;;;5.23;;
75450;SDS011;64029;48.244;9.188;2023-09-08T04:59:14;7.00;;;5.43;;
75450;SDS011;64029;48.244;9.188;2023-09-08T05:01:41;5.00;;;4.57;;
75450;SDS011;64029;48.244;9.188;2023-09-08T05:04:08;5.33;;;4.83;;
75450;SDS011;64029;48.244;9.188;2023-09-08T05:06:35;5.97;;;5.27;;
75450;SDS011;64029;48.244;9.188;2023-09-08T05:09:04;5.70;;;4.63;;
75450;SDS011;64029;48.244;9.188;2023-09-08T05:11:32;6.87;;;5.27;;
75450;SDS011;64029;48.244;9.188;2023-09-08T05:13:59;5.20;;;4.70;;
75450;SDS011;64029;48.244;9.188;2023-09-08T05:16:25;8.03;;;4.30;;
75450;SDS011;64029;48.244;9.188;2023-09-08T05:19:02;5.70;;;4.97;;
75450;SDS011;64029;48.244;9.188;2023-09-08T05:21:29;5.30;;;4.57;;
75450;SDS011;64029;48.244;9.188;2023-09-08T05:23:56;6.50;;;5.10;;
75450;SDS011;64029;48.244;9.188;2023-09-08T05:26:24;4.93;;;4.30;;
75450;SDS011;64029;48.244;9.188;2023-09-08T05:28:51;4.87;;;4.30;;
75450;SDS011;64029;48.244;9.188;2023-09-08T05:31:18;6.07;;;4.67;;
75450;SDS011;64029;48.244;9.188;2023-09-08T05:33:45;6.87;;;5.00;;
75450;SDS011;64029;48.244;9.188;2023-09-08T05:36:11;5.80;;;4.73;;
75450;SDS011;64029;48.244;9.188;2023-09-08T05:38:38;6.47;;;5.50;;
75450;SDS011;64029;48.244;9.188;2023-09-08T05:41:05;6.07;;;5.10;;
75450;SDS011;64029;48.244;9.188;2023-09-08T05:43:33;5.70;;;5.07;;
75450;SDS011;64029;48.244;9.188;2023-09-08T05:46:00;6.17;;;5.20;;
75450;SDS011;64029;48.244;9.188;2023-09-08T05:48:28;6.87;;;5.80;;
75450;SDS011;64029;48.244;9.188;2023-09-08T05:50:55;5.70;;;5.07;;
75450;SDS011;64029;48.244;9.188;2023-09-08T05:53:22;6.93;;;5.23;;
75450;SDS011;64029;48.244;9.188;2023-09-08T05:55:48;5.67;;;5.17;;
75450;SDS011;64029;48.244;9.188;2023-09-08T05:58:16;6.23;;;5.63;;
75450;SDS011;64029;48.244;9.188;2023-09-08T06:00:44;6.50;;;5.47;;
75450;SDS011;64029;48.244;9.188;2023-09-08T06:03:11;5.80;;;5.30;;
75450;SDS011;64029;48.244;9.188;2023-09-08T06:05:37;7.80;;;5.93;;
75450;SDS011;64029;48.244;9.188;2023-09-08T06:08:04;6.90;;;6.20;;
75450;SDS011;64029;48.244;9.188;2023-09-08T06:10:31;10.73;;;5.20;;
75450;SDS011;64029;48.244;9.188;2023-09-08T06:12:58;7.67;;;5.73;;
75450;SDS011;64029;48.244;9.188;2023-09-08T06:15:26;5.83;;;5.23;;
75450;SDS011;64029;48.244;9.188;2023-09-08T06:17:54;7.30;;;6.10;;
75450;SDS011;64029;48.244;9.188;2023-09-08T06:20:21;6.30;;;5.70;;
75450;SDS011;64029;48.244;9.188;2023-09-08T06:22:49;6.80;;;5.93;;
75450;SDS011;64029;48.244;9.188;2023-09-08T06:25:16;6.47;;;5.80;;
75450;SDS011;64029;48.244;9.188;2023-09-08T06:27:44;7.10;;;6.40;;
75450;SDS011;64029;48.244;9.188;2023-09-08T06:30:11;7.27;;;5.90;;
75450;SDS011;64029;48.244;9.188;2023-09-08T06:32:39;6.90;;;6.20;;
75450;SDS011;64029;48.244;9.188;2023-09-08T06:35:08;11.43;;;7.27;;
75450;SDS011;64029;48.244;9.188;2023-09-08T06:37:35;9.30;;;6.83;;
75450;SDS011;64029;48.244;9.188;2023-09-08T06:40:02;7.17;;;6.47;;
75450;SDS011;64029;48.244;9.188;2023-09-08T06:42:30;12.30;;;7.53;;
75450;SDS011;64029;48.244;9.188;2023-09-08T06:44:56;8.87;;;6.80;;
75450;SDS011;64029;48.244;9.188;2023-09-08T06:47:23;11.77;;;6.80;;
75450;SDS011;64029;48.244;9.188;2023-09-08T06:49:50;8.77;;;6.90;;
75450;SDS011;64029;48.244;9.188;2023-09-08T06:52:19;7.13;;;6.10;;
75450;SDS011;64029;48.244;9.188;2023-09-08T06:54:45;11.87;;;7.70;;
75450;SDS011;64029;48.244;9.188;2023-09-08T06:57:12;7.97;;;6.73;;
75450;SDS011;64029;48.244;9.188;2023-09-08T06:59:39;9.37;;;6.53;;
75450;SDS011;64029;48.244;9.188;2023-09-08T07:02:06;7.10;;;6.40;;
75450;SDS011;64029;48.244;9.188;2023-09-08T07:04:33;7.00;;;6.33;;
75450;SDS011;64029;48.244;9.188;2023-09-08T07:07:00;6.73;;;5.93;;
75450;SDS011;64029;48.244;9.188;2023-09-08T07:09:33;7.77;;;7.00;;
75450;SDS011;64029;48.244;9.188;2023-09-08T07:12:00;7.90;;;7.10;;
75450;SDS011;64029;48.244;9.188;2023-09-08T07:14:27;8.97;;;7.10;;
75450;SDS011;64029;48.244;9.188;2023-09-08T07:16:54;7.50;;;6.60;;
75450;SDS011;64029;48.244;9.188;2023-09-08T07:19:21;9.10;;;7.43;;
75450;SDS011;64029;48.244;9.188;2023-09-08T07:21:48;7.80;;;6.93;;
75450;SDS011;64029;48.244;9.188;2023-09-08T07:24:14;8.23;;;7.43;;
75450;SDS011;64029;48.244;9.188;2023-09-08T07:26:43;9.57;;;7.07;;
75450;SDS011;64029;48.244;9.188;2023-09-08T07:29:09;8.07;;;7.27;;
75450;SDS011;64029;48.244;9.188;2023-09-08T07:31:37;8.43;;;7.53;;
75450;SDS011;64029;48.244;9.188;2023-09-08T07:34:04;7.77;;;6.80;;
75450;SDS011;64029;48.244;9.188;2023-09-08T07:36:30;9.30;;;7.50;;
75450;SDS011;64029;48.244;9.188;2023-09-08T07:38:57;9.40;;;8.30;;
75450;SDS011;64029;48.244;9.188;2023-09-08T07:41:24;11.60;;;8.50;;
75450;SDS011;64029;48.244;9.188;2023-09-08T07:43:52;11.33;;;7.90;;
75450;SDS011;64029;48.244;9.188;2023-09-08T07:46:19;9.80;;;8.07;;
75450;SDS011;64029;48.244;9.188;2023-09-08T07:48:46;11.10;;;8.10;;
75450;SDS011;64029;48.244;9.188;2023-09-08T07:51:13;8.97;;;8.07;;
75450;SDS011;64029;48.244;9.188;2023-09-08T07:53:39;12.23;;;9.00;;
75450;SDS011;64029;48.244;9.188;2023-09-08T07:56:06;13.20;;;9.63;;
75450;SDS011;64029;48.244;9.188;2023-09-08T07:58:33;10.60;;;8.80;;
75450;SDS011;64029;48.244;9.188;2023-09-08T08:01:01;14.23;;;8.97;;
75450;SDS011;64029;48.244;9.188;2023-09-08T08:03:28;11.40;;;9.00;;
75450;SDS011;64029;48.244;9.188;2023-09-08T08:05:56;12.27;;;9.47;;
75450;SDS011;64029;48.244;9.188;2023-09-08T08:08:23;11.37;;;8.40;;
75450;SDS011;64029;48.244;9.188;2023-09-08T08:10:49;9.37;;;7.47;;
75450;SDS011;64029;48.244;9.188;2023-09-08T08:13:16;8.40;;;7.20;;
75450;SDS011;64029;48.244;9.188;2023-09-08T08:15:44;9.50;;;8.43;;
75450;SDS011;64029;48.244;9.188;2023-09-08T08:18:13;11.90;;;8.33;;
75450;SDS011;64029;48.244;9.188;2023-09-08T08:20:40;9.93;;;8.80;;
75450;SDS011;64029;48.244;9.188;2023-09-08T08:23:07;9.83;;;8.40;;
75450;SDS011;64029;48.244;9.188;2023-09-08T08:25:34;8.80;;;8.00;;
75450;SDS011;64029;48.244;9.188;2023-09-08T08:28:01;10.57;;;9.40;;
75450;SDS011;64029;48.244;9.188;2023-09-08T08:30:28;9.00;;;7.43;;
75450;SDS011;64029;48.244;9.188;2023-09-08T08:32:55;9.50;;;7.80;;
75450;SDS011;64029;48.244;9.188;2023-09-08T08:35:23;9.33;;;8.27;;
75450;SDS011;64029;48.244;9.188;2023-09-08T08:37:50;10.07;;;8.70;;
75450;SDS011;64029;48.244;9.188;2023-09-08T08:40:17;9.13;;;8.33;;
75450;SDS011;64029;48.244;9.188;2023-09-08T08:42:43;9.53;;;7.80;;
75450;SDS011;64029;48.244;9.188;2023-09-08T08:45:11;12.50;;;8.53;;
75450;SDS011;64029;48.244;9.188;2023-09-08T08:47:37;8.90;;;8.00;;
75450;SDS011;64029;48.244;9.188;2023-09-08T08:50:06;9.23;;;8.33;;
75450;SDS011;64029;48.244;9.188;2023-09-08T08:52:37;9.00;;;8.10;;
75450;SDS011;64029;48.244;9.188;2023-09-08T08:55:06;10.60;;;8.33;;
75450;SDS011;64029;48.244;9.188;2023-09-08T08:57:33;8.70;;;7.90;;
75450;SDS011;64029;48.244;9.188;2023-09-08T09:00:02;9.27;;;8.27;;
75450;SDS011;64029;48.244;9.188;2023-09-08T09:02:33;9.50;;;8.57;;
75450;SDS011;64029;48.244;9.188;2023-09-08T09:05:02;9.53;;;8.63;;
75450;SDS011;64029;48.244;9.188;2023-09-08T09:07:29;9.73;;;8.60;;
75450;SDS011;64029;48.244;9.188;2023-09-08T09:09:58;11.37;;;9.00;;
75450;SDS011;64029;48.244;9.188;2023-09-08T09:12:25;12.23;;;9.33;;
75450;SDS011;64029;48.244;9.188;2023-09-08T09:14:52;13.13;;;8.83;;
75450;SDS011;64029;48.244;9.188;2023-09-08T09:17:19;9.83;;;8.90;;
75450;SDS011;64029;48.244;9.188;2023-09-08T09:19:46;11.73;;;8.73;;
75450;SDS011;64029;48.244;9.188;2023-09-08T09:22:13;10.23;;;9.23;;
75450;SDS011;64029;48.244;9.188;2023-09-08T09:24:40;13.03;;;8.97;;
75450;SDS011;64029;48.244;9.188;2023-09-08T09:27:09;9.90;;;8.90;;
75450;SDS011;64029;48.244;9.188;2023-09-08T09:29:43;10.30;;;9.30;;
75450;SDS011;64029;48.244;9.188;2023-09-08T09:32:11;9.63;;;8.70;;
75450;SDS011;64029;48.244;9.188;2023-09-08T09:34:47;9.80;;;8.60;;
75450;SDS011;64029;48.244;9.188;2023-09-08T09:37:15;10.17;;;9.07;;
75450;SDS011;64029;48.244;9.188;2023-09-08T09:39:42;13.23;;;9.27;;
75450;SDS011;64029;48.244;9.188;2023-09-08T09:42:15;10.30;;;9.30;;
75450;SDS011;64029;48.244;9.188;2023-09-08T09:44:42;9.83;;;8.83;;
75450;SDS011;64029;48.244;9.188;2023-09-08T09:47:09;10.43;;;9.43;;
75450;SDS011;64029;48.244;9.188;2023-09-08T09:49:41;9.30;;;8.03;;
75450;SDS011;64029;48.244;9.188;2023-09-08T09:52:08;12.10;;;8.23;;
75450;SDS011;64029;48.244;9.188;2023-09-08T09:54:37;9.87;;;8.73;;
75450;SDS011;64029;48.244;9.188;2023-09-08T09:57:04;10.93;;;9.70;;
75450;SDS011;64029;48.244;9.188;2023-09-08T09:59:33;10.87;;;9.87;;
75450;SDS011;64029;48.244;9.188;2023-09-08T10:02:00;10.87;;;9.10;;
75450;SDS011;64029;48.244;9.188;2023-09-08T10:04:28;11.30;;;10.10;;
75450;SDS011;64029;48.244;9.188;2023-09-08T10:06:56;10.27;;;9.23;;
75450;SDS011;64029;48.244;9.188;2023-09-08T10:09:23;11.00;;;9.37;;
75450;SDS011;64029;48.244;9.188;2023-09-08T10:11:50;10.57;;;9.50;;
75450;SDS011;64029;48.244;9.188;2023-09-08T10:14:21;10.00;;;9.00;;
75450;SDS011;64029;48.244;9.188;2023-09-08T10:16:51;9.73;;;8.73;;
75450;SDS011;64029;48.244;9.188;2023-09-08T10:19:21;9.60;;;8.50;;
75450;SDS011;64029;48.244;9.188;2023-09-08T10:21:49;11.10;;;10.00;;
75450;SDS011;64029;48.244;9.188;2023-09-08T10:24:21;10.60;;;9.57;;
75450;SDS011;64029;48.244;9.188;2023-09-08T10:26:51;10.17;;;9.17;;
75450;SDS011;64029;48.244;9.188;2023-09-08T10:29:25;10.57;;;9.60;;
75450;SDS011;64029;48.244;9.188;2023-09-08T10:31:54;9.93;;;9.03;;
75450;SDS011;64029;48.244;9.188;2023-09-08T10:34:23;9.83;;;8.93;;
75450;SDS011;64029;48.244;9.188;2023-09-08T10:36:51;9.93;;;8.47;;
75450;SDS011;64029;48.244;9.188;2023-09-08T10:39:27;8.97;;;8.07;;
75450;SDS011;64029;48.244;9.188;2023-09-08T10:42:19;9.60;;;8.60;;
75450;SDS011;64029;48.244;9.188;2023-09-08T10:44:57;10.47;;;9.40;;
75450;SDS011;64029;48.244;9.188;2023-09-08T10:47:32;10.53;;;9.53;;
75450;SDS011;64029;48.244;9.188;2023-09-08T10:50:06;9.17;;;8.37;;
75450;SDS011;64029;48.244;9.188;2023-09-08T10:52:34;12.70;;;10.10;;
75450;SDS011;64029;48.244;9.188;2023-09-08T10:55:01;10.20;;;9.20;;
75450;SDS011;64029;48.244;9.188;2023-09-08T10:57:30;9.77;;;8.87;;
75450;SDS011;64029;48.244;9.188;2023-09-08T11:00:00;9.77;;;8.77;;
75450;SDS011;64029;48.244;9.188;2023-09-08T11:02:36;10.13;;;9.23;;
75450;SDS011;64029;48.244;9.188;2023-09-08T11:05:04;10.00;;;9.20;;
75450;SDS011;64029;48.244;9.188;2023-09-08T11:07:34;10.87;;;9.80;;
75450;SDS011;64029;48.244;9.188;2023-09-08T11:10:02;10.33;;;9.23;;
75450;SDS011;64029;48.244;9.188;2023-09-08T11:12:29;14.50;;;9.47;;
75450;SDS011;64029;48.244;9.188;2023-09-08T11:14:56;9.57;;;8.67;;
75450;SDS011;64029;48.244;9.188;2023-09-08T11:17:26;10.40;;;9.30;;
75450;SDS011;64029;48.244;9.188;2023-09-08T11:19:54;8.80;;;8.00;;
75450;SDS011;64029;48.244;9.188;2023-09-08T11:22:22;9.50;;;8.30;;
75450;SDS011;64029;48.244;9.188;2023-09-08T11:24:50;8.97;;;8.07;;
75450;SDS011;64029;48.244;9.188;2023-09-08T11:27:18;9.60;;;8.50;;
75450;SDS011;64029;48.244;9.188;2023-09-08T11:29:45;9.37;;;8.47;;
75450;SDS011;64029;48.244;9.188;2023-09-08T11:32:12;9.07;;;8.27;;
75450;SDS011;64029;48.244;9.188;2023-09-08T11:34:39;9.67;;;8.67;;
75450;SDS011;64029;48.244;9.188;2023-09-08T11:37:09;9.70;;;8.60;;
75450;SDS011;64029;48.244;9.188;2023-09-08T11:39:38;9.00;;;8.17;;
75450;SDS011;64029;48.244;9.188;2023-09-08T11:42:05;8.50;;;7.70;;
75450;SDS011;64029;48.244;9.188;2023-09-08T11:44:33;10.60;;;7.67;;
75450;SDS011;64029;48.244;9.188;2023-09-08T11:47:01;9.00;;;8.20;;
75450;SDS011;64029;48.244;9.188;2023-09-08T11:49:39;8.20;;;7.53;;
75450;SDS011;64029;48.244;9.188;2023-09-08T11:52:06;8.40;;;7.60;;
75450;SDS011;64029;48.244;9.188;2023-09-08T11:54:35;8.23;;;7.53;;
75450;SDS011;64029;48.244;9.188;2023-09-08T11:57:04;8.57;;;7.77;;
75450;SDS011;64029;48.244;9.188;2023-09-08T11:59:34;9.10;;;7.87;;
75450;SDS011;64029;48.244;9.188;2023-09-08T12:02:03;8.40;;;7.70;;
75450;SDS011;64029;48.244;9.188;2023-09-08T12:04:30;8.33;;;7.53;;
75450;SDS011;64029;48.244;9.188;2023-09-08T12:07:01;9.40;;;8.50;;
75450;SDS011;64029;48.244;9.188;2023-09-08T12:09:30;9.10;;;8.30;;
75450;SDS011;64029;48.244;9.188;2023-09-08T12:11:57;9.40;;;8.50;;
75450;SDS011;64029;48.244;9.188;2023-09-08T12:14:29;8.90;;;8.07;;
75450;SDS011;64029;48.244;9.188;2023-09-08T12:17:04;8.83;;;7.93;;
75450;SDS011;64029;48.244;9.188;2023-09-08T12:19:32;8.30;;;7.50;;
75450;SDS011;64029;48.244;9.188;2023-09-08T12:22:02;10.20;;;8.00;;
75450;SDS011;64029;48.244;9.188;2023-09-08T12:24:47;8.90;;;8.10;;
75450;SDS011;64029;48.244;9.188;2023-09-08T12:27:16;8.73;;;7.83;;
75450;SDS011;64029;48.244;9.188;2023-09-08T12:29:53;7.43;;;6.70;;
75450;SDS011;64029;48.244;9.188;2023-09-08T12:32:21;8.33;;;7.53;;
75450;SDS011;64029;48.244;9.188;2023-09-08T12:34:48;8.93;;;8.03;;
75450;SDS011;64029;48.244;9.188;2023-09-08T12:37:18;9.23;;;8.17;;
75450;SDS011;64029;48.244;9.188;2023-09-08T12:39:47;9.53;;;7.57;;
75450;SDS011;64029;48.244;9.188;2023-09-08T12:42:14;7.80;;;7.10;;
75450;SDS011;64029;48.244;9.188;2023-09-08T12:44:41;8.30;;;7.47;;
75450;SDS011;64029;48.244;9.188;2023-09-08T12:47:09;8.23;;;7.53;;
75450;SDS011;64029;48.244;9.188;2023-09-08T12:49:37;7.60;;;6.80;;
75450;SDS011;64029;48.244;9.188;2023-09-08T12:52:04;10.23;;;8.33;;
75450;SDS011;64029;48.244;9.188;2023-09-08T12:54:32;8.57;;;7.70;;
75450;SDS011;64029;48.244;9.188;2023-09-08T12:57:00;8.57;;;7.80;;
75450;SDS011;64029;48.244;9.188;2023-09-08T12:59:27;8.00;;;7.30;;
75450;SDS011;64029;48.244;9.188;2023-09-08T13:01:54;8.53;;;7.73;;
75450;SDS011;64029;48.244;9.188;2023-09-08T13:04:23;10.40;;;7.50;;
75450;SDS011;64029;48.244;9.188;2023-09-08T13:06:50;9.03;;;7.67;;
75450;SDS011;64029;48.244;9.188;2023-09-08T13:09:17;11.93;;;7.80;;
75450;SDS011;64029;48.244;9.188;2023-09-08T13:11:44;8.10;;;7.40;;
75450;SDS011;64029;48.244;9.188;2023-09-08T13:14:12;8.70;;;7.80;;
75450;SDS011;64029;48.244;9.188;2023-09-08T13:16:39;7.83;;;7.13;;
75450;SDS011;64029;48.244;9.188;2023-09-08T13:19:05;7.37;;;6.77;;
75450;SDS011;64029;48.244;9.188;2023-09-08T13:21:32;10.47;;;7.93;;
75450;SDS011;64029;48.244;9.188;2023-09-08T13:23:59;8.90;;;8.10;;
75450;SDS011;64029;48.244;9.188;2023-09-08T13:26:26;8.50;;;7.70;;
75450;SDS011;64029;48.244;9.188;2023-09-08T13:28:53;8.90;;;8.00;;
75450;SDS011;64029;48.244;9.188;2023-09-08T13:31:22;8.43;;;7.73;;
75450;SDS011;64029;48.244;9.188;2023-09-08T13:33:48;9.03;;;8.17;;
75450;SDS011;64029;48.244;9.188;2023-09-08T13:36:15;8.77;;;7.80;;
75450;SDS011;64029;48.244;9.188;2023-09-08T13:38:42;9.07;;;8.23;;
75450;SDS011;64029;48.244;9.188;2023-09-08T13:41:29;8.60;;;7.80;;
75450;SDS011;64029;48.244;9.188;2023-09-08T13:44:10;8.77;;;7.97;;
75450;SDS011;64029;48.244;9.188;2023-09-08T13:46:38;7.77;;;7.10;;
75450;SDS011;64029;48.244;9.188;2023-09-08T13:49:05;10.33;;;8.10;;
75450;SDS011;64029;48.244;9.188;2023-09-08T13:51:32;8.20;;;7.40;;
75450;SDS011;64029;48.244;9.188;2023-09-08T13:53:59;8.70;;;7.90;;
75450;SDS011;64029;48.244;9.188;2023-09-08T13:56:27;9.23;;;8.10;;
75450;SDS011;64029;48.244;9.188;2023-09-08T13:58:54;8.97;;;8.13;;
75450;SDS011;64029;48.244;9.188;2023-09-08T14:01:21;8.60;;;7.80;;
75450;SDS011;64029;48.244;9.188;2023-09-08T14:03:49;9.57;;;8.30;;
75450;SDS011;64029;48.244;9.188;2023-09-08T14:06:17;9.20;;;8.47;;
75450;SDS011;64029;48.244;9.188;2023-09-08T14:08:44;8.33;;;7.53;;
75450;SDS011;64029;48.244;9.188;2023-09-08T14:11:11;8.80;;;8.00;;
75450;SDS011;64029;48.244;9.188;2023-09-08T14:13:38;9.30;;;8.47;;
75450;SDS011;64029;48.244;9.188;2023-09-08T14:16:05;10.63;;;8.17;;
75450;SDS011;64029;48.244;9.188;2023-09-08T14:18:33;11.53;;;8.60;;
75450;SDS011;64029;48.244;9.188;2023-09-08T14:21:02;10.30;;;8.70;;
75450;SDS011;64029;48.244;9.188;2023-09-08T14:23:29;8.07;;;7.33;;
75450;SDS011;64029;48.244;9.188;2023-09-08T14:25:56;8.60;;;7.80;;
75450;SDS011;64029;48.244;9.188;2023-09-08T14:28:23;9.30;;;8.50;;
75450;SDS011;64029;48.244;9.188;2023-09-08T14:30:51;8.73;;;7.93;;
75450;SDS011;64029;48.244;9.188;2023-09-08T14:33:18;9.60;;;8.23;;
75450;SDS011;64029;48.244;9.188;2023-09-08T14:35:45;11.67;;;8.50;;
75450;SDS011;64029;48.244;9.188;2023-09-08T14:38:18;9.27;;;8.37;;
75450;SDS011;64029;48.244;9.188;2023-09-08T14:40:45;9.20;;;8.30;;
75450;SDS011;64029;48.244;9.188;2023-09-08T14:43:21;8.70;;;7.90;;
75450;SDS011;64029;48.244;9.188;2023-09-08T14:45:50;9.30;;;8.40;;
75450;SDS011;64029;48.244;9.188;2023-09-08T14:48:18;8.63;;;7.73;;
75450;SDS011;64029;48.244;9.188;2023-09-08T14:50:45;8.00;;;7.30;;